createdAt,value
2023-03-16T00:01:06.699Z,3.28
2023-03-16T00:03:34.462Z,3.00
2023-03-16T00:06:01.999Z,2.80
2023-03-16T00:08:29.227Z,3.00
2023-03-16T00:10:58.593Z,2.80
2023-03-16T00:13:29.654Z,2.75
2023-03-16T00:15:59.315Z,2.88
2023-03-16T00:18:28.998Z,2.55
2023-03-16T00:21:05.227Z,2.90
2023-03-16T00:23:35.977Z,3.17
2023-03-16T00:26:07.907Z,3.15
2023-03-16T00:28:36.184Z,2.55
2023-03-16T00:31:08.960Z,3.03
2023-03-16T00:33:39.867Z,2.92
2023-03-16T00:36:09.380Z,2.85
2023-03-16T00:38:39.810Z,3.15
2023-03-16T00:41:09.125Z,2.80
2023-03-16T00:43:41.069Z,2.70
2023-03-16T00:46:11.522Z,2.88
2023-03-16T00:48:42.505Z,3.00
2023-03-16T00:51:12.901Z,3.20
2023-03-16T00:53:41.913Z,2.70
2023-03-16T00:56:12.622Z,2.78
2023-03-16T00:58:43.198Z,3.03
2023-03-16T01:01:16.479Z,2.80
2023-03-16T01:03:43.693Z,2.78
2023-03-16T01:06:13.855Z,2.92
2023-03-16T01:08:43.415Z,3.00
2023-03-16T01:11:13.286Z,2.95
2023-03-16T01:13:42.801Z,2.88
2023-03-16T01:16:10.977Z,3.00
2023-03-16T01:18:39.088Z,3.00
2023-03-16T01:21:09.153Z,2.78
2023-03-16T01:23:37.371Z,2.80
2023-03-16T01:26:04.885Z,3.20
2023-03-16T01:28:33.505Z,2.80
2023-03-16T01:31:09.496Z,2.72
2023-03-16T01:36:25.011Z,2.90
2023-03-16T01:38:56.736Z,2.75
2023-03-16T01:41:27.168Z,2.80
2023-03-16T01:43:58.289Z,2.95
2023-03-16T01:46:28.494Z,3.33
2023-03-16T01:49:10.249Z,3.13
2023-03-16T01:51:52.944Z,3.05
2023-03-16T01:54:37.585Z,2.80
2023-03-16T01:57:07.696Z,2.83
2023-03-16T02:00:15.544Z,3.10
2023-03-16T02:02:48.835Z,3.10
2023-03-16T02:05:43.246Z,2.85
2023-03-16T02:08:13.896Z,3.00
2023-03-16T02:10:41.394Z,2.88
2023-03-16T02:13:09.005Z,3.10
2023-03-16T02:15:37.590Z,3.38
2023-03-16T02:18:08.820Z,3.28
2023-03-16T02:20:42.605Z,3.10
2023-03-16T02:23:18.713Z,2.92
2023-03-16T02:26:13.059Z,3.13
2023-03-16T02:29:01.640Z,3.10
2023-03-16T02:31:31.840Z,2.83
2023-03-16T02:34:01.973Z,2.92
2023-03-16T02:36:30.661Z,3.20
2023-03-16T02:39:00.220Z,3.00
2023-03-16T02:41:28.311Z,3.03
2023-03-16T02:44:24.299Z,3.20
2023-03-16T02:47:01.392Z,3.00
2023-03-16T02:49:37.941Z,2.90
2023-03-16T02:52:09.336Z,2.90
2023-03-16T02:54:39.703Z,2.92
2023-03-16T02:57:08.224Z,3.15
2023-03-16T02:59:36.312Z,3.20
2023-03-16T03:02:04.795Z,3.13
2023-03-16T03:04:33.081Z,3.13
2023-03-16T03:07:04.728Z,3.10
2023-03-16T03:09:47.509Z,3.08
2023-03-16T03:12:19.303Z,2.95
2023-03-16T03:14:46.837Z,3.17
2023-03-16T03:17:19.865Z,2.90
2023-03-16T03:19:50.141Z,2.70
2023-03-16T03:22:18.861Z,2.80
2023-03-16T03:24:46.406Z,2.65
2023-03-16T03:27:14.817Z,3.08
2023-03-16T03:29:41.992Z,3.30
2023-03-16T03:32:09.461Z,2.67
2023-03-16T03:34:37.019Z,2.90
2023-03-16T03:37:05.983Z,3.28
2023-03-16T03:39:33.427Z,3.10
2023-03-16T03:42:03.034Z,3.30
2023-03-16T03:44:32.749Z,2.97
2023-03-16T03:47:04.184Z,2.92
2023-03-16T03:49:31.797Z,2.92
2023-03-16T03:51:59.223Z,3.33
2023-03-16T03:54:51.602Z,3.00
2023-03-16T03:57:20.888Z,2.80
2023-03-16T03:59:53.782Z,3.22
2023-03-16T04:02:21.122Z,3.05
2023-03-16T04:04:57.050Z,3.08
2023-03-16T04:07:24.214Z,3.20
2023-03-16T04:09:55.873Z,3.00
2023-03-16T04:12:28.353Z,2.97
2023-03-16T04:14:56.419Z,2.88
2023-03-16T04:17:25.418Z,3.15
2023-03-16T04:19:54.085Z,3.10
2023-03-16T04:22:23.246Z,3.00
2023-03-16T04:24:53.622Z,2.70
2023-03-16T04:27:24.759Z,3.20
2023-03-16T04:29:55.694Z,3.00
2023-03-16T04:32:26.215Z,3.67
2023-03-16T04:34:55.908Z,4.00
2023-03-16T04:37:27.466Z,3.83
2023-03-16T04:39:55.195Z,3.88
2023-03-16T04:42:24.794Z,3.55
2023-03-16T04:44:52.132Z,3.50
2023-03-16T04:47:23.139Z,3.75
2023-03-16T04:49:50.430Z,3.33
2023-03-16T04:52:17.763Z,3.03
2023-03-16T04:54:47.407Z,3.15
2023-03-16T04:57:19.317Z,3.28
2023-03-16T04:59:51.535Z,3.20
2023-03-16T05:02:27.826Z,2.85
2023-03-16T05:04:59.270Z,3.33
2023-03-16T05:07:27.505Z,3.30
2023-03-16T05:09:58.691Z,3.30
2023-03-16T05:12:27.213Z,2.92
2023-03-16T05:17:38.394Z,3.10
2023-03-16T05:20:08.212Z,3.00
2023-03-16T05:22:37.415Z,2.60
2023-03-16T05:28:28.303Z,3.63
2023-03-16T05:31:03.739Z,2.88
2023-03-16T05:33:37.634Z,3.47
2023-03-16T05:36:08.646Z,2.65
2023-03-16T05:38:39.157Z,3.08
2023-03-16T05:41:09.461Z,3.05
2023-03-16T05:44:09.224Z,2.63
2023-03-16T05:47:09.171Z,2.30
2023-03-16T05:49:45.370Z,3.15
2023-03-16T05:52:22.658Z,2.90
2023-03-16T05:54:49.823Z,2.65
2023-03-16T05:57:19.416Z,2.60
2023-03-16T05:59:53.156Z,3.13
2023-03-16T06:02:21.368Z,3.15
2023-03-16T06:04:48.632Z,2.97
2023-03-16T06:07:16.139Z,2.83
2023-03-16T06:09:43.811Z,3.33
2023-03-16T06:12:15.318Z,2.80
2023-03-16T06:14:46.167Z,3.03
2023-03-16T06:17:14.040Z,3.05
2023-03-16T06:19:42.973Z,3.10
2023-03-16T06:22:10.470Z,3.10
2023-03-16T06:24:50.726Z,2.58
2023-03-16T06:27:27.121Z,2.60
2023-03-16T06:30:13.563Z,2.78
2023-03-16T06:32:45.440Z,2.92
2023-03-16T06:35:13.705Z,2.83
2023-03-16T06:37:46.782Z,2.65
2023-03-16T06:40:38.470Z,2.40
2023-03-16T06:43:06.538Z,2.85
2023-03-16T06:45:36.864Z,3.08
2023-03-16T06:48:04.256Z,2.88
2023-03-16T06:50:34.020Z,2.78
2023-03-16T06:53:01.394Z,2.53
2023-03-16T06:55:34.581Z,2.67
2023-03-16T06:58:02.212Z,2.85
2023-03-16T07:00:30.869Z,2.63
2023-03-16T07:03:00.420Z,2.40
2023-03-16T07:05:29.174Z,2.80
2023-03-16T07:08:30.781Z,2.63
2023-03-16T07:10:58.099Z,2.67
2023-03-16T07:13:26.823Z,3.03
2023-03-16T07:15:55.349Z,2.55
2023-03-16T07:18:26.178Z,2.47
2023-03-16T07:20:56.529Z,2.47
2023-03-16T07:23:26.530Z,2.60
2023-03-16T07:25:58.995Z,2.50
2023-03-16T07:28:28.115Z,2.60
2023-03-16T07:31:03.904Z,2.58
2023-03-16T07:33:37.898Z,2.65
2023-03-16T07:36:09.393Z,2.40
2023-03-16T07:38:41.671Z,2.47
2023-03-16T07:41:09.141Z,2.75
2023-03-16T07:43:36.515Z,2.55
2023-03-16T07:46:06.442Z,2.83
2023-03-16T07:48:34.574Z,2.60
2023-03-16T07:51:03.255Z,2.67
2023-03-16T07:53:32.016Z,2.45
2023-03-16T07:56:17.834Z,2.40
2023-03-16T07:58:48.393Z,2.45
2023-03-16T08:01:16.359Z,2.67
2023-03-16T08:03:44.546Z,2.85
2023-03-16T08:06:12.196Z,2.90
2023-03-16T08:08:39.484Z,2.55
2023-03-16T08:11:07.673Z,2.70
2023-03-16T08:16:22.986Z,2.47
2023-03-16T08:18:51.842Z,2.60
2023-03-16T08:21:20.439Z,2.55
2023-03-16T08:23:50.553Z,2.53
2023-03-16T08:26:22.547Z,2.50
2023-03-16T08:28:55.158Z,2.60
2023-03-16T08:31:25.345Z,2.28
2023-03-16T08:34:07.640Z,2.70
2023-03-16T08:36:39.764Z,2.33
2023-03-16T08:39:07.838Z,2.60
2023-03-16T08:41:47.063Z,2.45
2023-03-16T08:44:25.534Z,2.50
2023-03-16T08:46:55.281Z,2.28
2023-03-16T08:49:24.057Z,2.72
2023-03-16T08:52:00.795Z,2.45
2023-03-16T08:54:28.088Z,2.38
2023-03-16T08:56:57.234Z,2.42
2023-03-16T08:59:30.272Z,2.42
2023-03-16T09:01:58.932Z,2.35
2023-03-16T09:04:28.726Z,1.98
2023-03-16T09:07:07.985Z,2.30
2023-03-16T09:09:36.363Z,2.50
2023-03-16T09:12:04.447Z,2.42
2023-03-16T09:14:35.276Z,2.10
2023-03-16T09:17:02.507Z,2.50
2023-03-16T09:19:47.834Z,2.50
2023-03-16T09:22:18.328Z,2.00
2023-03-16T09:24:45.520Z,2.10
2023-03-16T09:27:12.938Z,2.53
2023-03-16T09:29:41.136Z,3.00
2023-03-16T09:32:09.888Z,3.13
2023-03-16T09:34:37.108Z,3.30
2023-03-16T09:37:05.190Z,3.53
2023-03-16T09:39:34.781Z,3.55
2023-03-16T09:42:16.326Z,4.38
2023-03-16T09:44:45.944Z,3.85
2023-03-16T09:47:16.595Z,3.75
2023-03-16T09:49:49.336Z,3.42
2023-03-16T09:52:33.990Z,4.40
2023-03-16T09:55:10.191Z,3.50
2023-03-16T09:57:44.613Z,3.42
2023-03-16T10:00:19.950Z,4.10
2023-03-16T10:03:24.891Z,3.70
2023-03-16T10:05:59.839Z,4.30
2023-03-16T10:08:58.475Z,3.85
2023-03-16T10:11:38.081Z,4.32
2023-03-16T10:14:17.405Z,3.88
2023-03-16T10:16:51.621Z,3.65
2023-03-16T10:19:42.338Z,3.20
2023-03-16T10:22:20.668Z,4.18
2023-03-16T10:24:47.782Z,3.88
2023-03-16T10:27:21.071Z,3.78
2023-03-16T10:29:48.848Z,3.70
2023-03-16T10:32:20.486Z,3.55
2023-03-16T10:35:02.569Z,3.20
2023-03-16T10:37:32.808Z,3.80
2023-03-16T10:40:00.772Z,3.30
2023-03-16T10:42:34.183Z,3.67
2023-03-16T10:45:04.266Z,3.05
2023-03-16T10:47:33.716Z,3.25
2023-03-16T10:50:16.886Z,4.25
2023-03-16T10:52:51.136Z,4.18
2023-03-16T10:55:24.918Z,3.63
2023-03-16T10:57:55.098Z,3.80
2023-03-16T11:00:28.836Z,3.50
2023-03-16T11:02:59.751Z,3.47
2023-03-16T11:05:33.148Z,3.15
2023-03-16T11:08:23.755Z,3.50
2023-03-16T11:11:08.494Z,3.08
2023-03-16T11:13:38.635Z,3.40
2023-03-16T11:16:26.028Z,3.13
2023-03-16T11:19:20.631Z,3.60
2023-03-16T11:21:51.601Z,3.55
2023-03-16T11:24:50.715Z,2.95
2023-03-16T11:27:24.912Z,2.72
2023-03-16T11:30:23.834Z,3.15
2023-03-16T11:32:54.261Z,3.20
2023-03-16T11:35:33.149Z,2.42
2023-03-16T11:38:18.940Z,2.65
2023-03-16T11:40:58.174Z,2.90
2023-03-16T11:43:47.838Z,2.80
2023-03-16T11:46:21.173Z,2.63
2023-03-16T11:48:51.387Z,2.30
2023-03-16T11:51:35.084Z,2.42
2023-03-16T11:54:02.540Z,2.47
2023-03-16T11:56:52.938Z,3.15
2023-03-16T12:00:02.330Z,2.50
2023-03-16T12:02:37.687Z,2.42
2023-03-16T12:05:14.529Z,2.40
2023-03-16T12:08:04.312Z,2.15
2023-03-16T12:10:41.903Z,2.47
2023-03-16T12:13:22.855Z,2.33
2023-03-16T12:15:59.685Z,2.28
2023-03-16T12:18:45.223Z,2.20
2023-03-16T12:21:27.293Z,2.20
2023-03-16T12:23:59.651Z,2.22
2023-03-16T12:26:32.564Z,2.10
2023-03-16T12:29:12.519Z,2.47
2023-03-16T12:31:58.186Z,2.03
2023-03-16T12:34:53.291Z,2.35
2023-03-16T12:37:38.939Z,2.20
2023-03-16T12:40:25.772Z,2.10
2023-03-16T12:43:19.014Z,1.85
2023-03-16T12:46:00.154Z,2.17
2023-03-16T12:48:52.410Z,2.25
2023-03-16T12:51:19.732Z,2.00
2023-03-16T12:53:55.294Z,1.70
2023-03-16T12:56:36.708Z,2.15
2023-03-16T12:59:07.644Z,1.92
2023-03-16T13:01:51.146Z,1.80
2023-03-16T13:04:34.052Z,2.03
2023-03-16T13:07:07.890Z,2.28
2023-03-16T13:09:42.080Z,1.95
2023-03-16T13:12:21.523Z,2.00
2023-03-16T13:14:50.323Z,2.10
2023-03-16T13:17:18.040Z,2.40
2023-03-16T13:19:59.773Z,2.03
2023-03-16T13:22:43.055Z,1.92
2023-03-16T13:25:23.274Z,2.05
2023-03-16T13:27:54.625Z,2.35
2023-03-16T13:30:32.010Z,1.90
2023-03-16T13:33:27.347Z,1.92
2023-03-16T13:35:57.513Z,1.90
2023-03-16T13:38:28.539Z,2.63
2023-03-16T13:41:10.178Z,2.00
2023-03-16T13:43:44.162Z,2.00
2023-03-16T13:46:23.522Z,1.70
2023-03-16T13:48:51.317Z,1.83
2023-03-16T13:51:22.780Z,1.67
2023-03-16T13:53:51.488Z,1.70
2023-03-16T13:56:28.785Z,1.63
2023-03-16T13:58:58.598Z,1.80
2023-03-16T14:01:27.634Z,2.17
2023-03-16T14:04:08.814Z,1.90
2023-03-16T14:06:36.777Z,2.10
2023-03-16T14:09:17.812Z,1.98
2023-03-16T14:14:20.326Z,2.22
2023-03-16T14:16:47.471Z,2.00
2023-03-16T14:19:20.383Z,1.92
2023-03-16T14:21:50.071Z,2.10
2023-03-16T14:24:37.178Z,1.90
2023-03-16T14:27:25.447Z,2.00
2023-03-16T14:30:18.416Z,2.00
2023-03-16T14:33:33.716Z,1.77
2023-03-16T14:36:13.224Z,1.83
2023-03-16T14:38:43.813Z,2.00
2023-03-16T14:41:24.224Z,1.73
2023-03-16T14:43:56.213Z,1.80
2023-03-16T14:46:38.554Z,1.50
2023-03-16T14:49:27.971Z,1.52
2023-03-16T14:52:02.313Z,1.70
2023-03-16T14:54:29.800Z,1.95
2023-03-16T14:57:05.709Z,1.90
2023-03-16T14:59:33.860Z,1.75
2023-03-16T15:02:04.235Z,1.70
2023-03-16T15:04:34.744Z,1.55
2023-03-16T15:07:20.258Z,1.60
2023-03-16T15:09:49.559Z,1.80
2023-03-16T15:12:19.746Z,1.90
2023-03-16T15:15:06.161Z,2.10
2023-03-16T15:17:33.610Z,2.00
2023-03-16T15:20:01.314Z,1.88
2023-03-16T15:22:33.693Z,1.90
2023-03-16T15:25:17.949Z,1.70
2023-03-16T15:27:52.612Z,2.10
2023-03-16T15:30:24.702Z,1.85
2023-03-16T15:32:52.849Z,1.90
2023-03-16T15:35:22.797Z,2.08
2023-03-16T15:37:50.180Z,2.15
2023-03-16T15:40:26.210Z,1.73
2023-03-16T15:42:55.578Z,1.90
2023-03-16T15:45:23.517Z,1.80
2023-03-16T15:47:53.181Z,1.77
2023-03-16T15:50:24.393Z,1.90
2023-03-16T15:52:59.338Z,1.90
2023-03-16T15:55:33.060Z,2.22
2023-03-16T15:58:02.599Z,1.58
2023-03-16T16:00:35.657Z,1.80
2023-03-16T16:03:05.289Z,2.92
2023-03-16T16:05:33.685Z,1.85
2023-03-16T16:08:00.912Z,2.30
2023-03-16T16:10:38.314Z,1.88
2023-03-16T16:13:43.033Z,1.85
2023-03-16T16:24:09.544Z,1.60
2023-03-16T16:24:39.534Z,1.67
2023-03-16T16:27:11.194Z,1.70
2023-03-16T16:29:38.936Z,2.05
2023-03-16T16:32:37.004Z,2.13
2023-03-16T16:35:16.968Z,1.95
2023-03-16T16:37:49.150Z,1.83
2023-03-16T16:40:25.693Z,1.70
2023-03-16T16:42:54.138Z,1.58
2023-03-16T16:45:25.188Z,1.83
2023-03-16T16:47:55.683Z,1.67
2023-03-16T16:50:27.540Z,1.60
2023-03-16T16:52:55.312Z,2.00
2023-03-16T16:55:24.354Z,1.70
2023-03-16T16:57:54.846Z,1.50
2023-03-16T17:00:25.063Z,1.80
2023-03-16T17:02:57.436Z,1.60
2023-03-16T17:05:28.069Z,1.70
2023-03-16T17:07:56.944Z,1.60
2023-03-16T17:10:31.350Z,1.75
2023-03-16T17:12:58.804Z,1.73
2023-03-16T17:15:29.632Z,1.63
2023-03-16T17:18:10.484Z,1.67
2023-03-16T17:20:39.022Z,2.05
2023-03-16T17:23:34.066Z,2.08
2023-03-16T17:26:11.736Z,1.67
2023-03-16T17:28:43.479Z,1.90
2023-03-16T17:31:13.176Z,1.42
2023-03-16T17:33:40.598Z,1.88
2023-03-16T17:36:09.565Z,2.10
2023-03-16T17:38:37.305Z,1.75
2023-03-16T17:41:06.953Z,2.20
2023-03-16T17:43:34.250Z,1.85
2023-03-16T17:46:03.270Z,2.10
2023-03-16T17:48:30.629Z,2.05
2023-03-16T17:50:57.815Z,2.20
2023-03-16T17:53:25.753Z,2.08
2023-03-16T17:55:53.807Z,2.10
2023-03-16T17:58:30.135Z,2.00
2023-03-16T18:00:58.665Z,2.53
2023-03-16T18:03:29.998Z,2.30
2023-03-16T18:05:58.092Z,2.42
2023-03-16T18:08:33.264Z,2.17
2023-03-16T18:11:10.295Z,2.05
2023-03-16T18:13:40.556Z,2.10
2023-03-16T18:16:08.672Z,2.10
2023-03-16T18:18:42.686Z,1.92
2023-03-16T18:21:23.394Z,2.05
2023-03-16T18:23:51.664Z,2.40
2023-03-16T18:26:24.574Z,2.55
2023-03-16T18:28:55.505Z,2.85
2023-03-16T18:31:26.320Z,2.47
2023-03-16T18:33:58.369Z,1.90
2023-03-16T18:36:37.716Z,2.60
2023-03-16T18:39:07.736Z,2.03
2023-03-16T18:41:35.980Z,2.63
2023-03-16T18:44:25.718Z,2.20
2023-03-16T18:47:01.474Z,2.20
2023-03-16T18:49:36.807Z,2.50
2023-03-16T18:52:12.596Z,2.60
2023-03-16T18:54:45.477Z,2.10
2023-03-16T18:57:24.817Z,2.10
2023-03-16T18:59:52.887Z,2.40
2023-03-16T19:02:34.460Z,2.20
2023-03-16T19:05:04.409Z,2.13
2023-03-16T19:07:38.733Z,2.13
2023-03-16T19:10:19.086Z,2.13
2023-03-16T19:12:46.720Z,2.22
2023-03-16T19:15:21.139Z,2.20
2023-03-16T19:17:51.182Z,2.05
2023-03-16T19:20:21.516Z,2.25
2023-03-16T19:22:51.205Z,2.03
2023-03-16T19:25:25.915Z,2.22
2023-03-16T19:27:53.881Z,2.05
2023-03-16T19:30:31.882Z,2.13
2023-03-16T19:32:59.988Z,2.05
2023-03-16T19:35:48.549Z,2.35
2023-03-16T19:38:18.644Z,2.20
2023-03-16T19:40:51.371Z,2.33
2023-03-16T19:43:22.790Z,2.05
2023-03-16T19:45:50.833Z,2.20
2023-03-16T19:48:34.897Z,2.65
2023-03-16T19:51:02.272Z,2.15
2023-03-16T19:53:29.691Z,2.50
2023-03-16T19:55:57.134Z,2.00
2023-03-16T19:58:32.067Z,1.92
2023-03-16T20:01:01.088Z,2.28
2023-03-16T20:03:36.372Z,2.00
2023-03-16T20:06:03.777Z,1.98
2023-03-16T20:08:31.666Z,2.22
2023-03-16T20:11:03.929Z,1.73
2023-03-16T20:13:31.528Z,2.07
2023-03-16T20:16:01.550Z,2.40
2023-03-16T20:18:29.398Z,1.95
2023-03-16T20:20:57.566Z,2.10
2023-03-16T20:23:27.214Z,2.05
2023-03-16T20:25:57.430Z,2.13
2023-03-16T20:28:36.239Z,2.00
2023-03-16T20:31:08.051Z,2.00
2023-03-16T20:33:35.332Z,2.22
2023-03-16T20:36:05.482Z,2.20
2023-03-16T20:38:33.118Z,2.10
2023-03-16T20:41:00.745Z,2.15
2023-03-16T20:43:31.992Z,2.03
2023-03-16T20:46:01.471Z,1.83
2023-03-16T20:48:32.444Z,1.88
2023-03-16T20:51:04.099Z,2.05
2023-03-16T20:53:33.226Z,2.08
2023-03-16T20:56:03.073Z,1.95
2023-03-16T20:58:31.086Z,2.08
2023-03-16T21:01:02.077Z,2.30
2023-03-16T21:03:33.372Z,2.05
2023-03-16T21:06:01.228Z,2.15
2023-03-16T21:08:28.661Z,1.88
2023-03-16T21:10:57.116Z,1.98
2023-03-16T21:13:32.948Z,1.88
2023-03-16T21:16:02.006Z,2.00
2023-03-16T21:18:30.332Z,2.00
2023-03-16T21:20:58.769Z,2.47
2023-03-16T21:23:28.830Z,1.98
2023-03-16T21:26:01.342Z,1.83
2023-03-16T21:28:32.399Z,2.10
2023-03-16T21:31:03.115Z,2.10
2023-03-16T21:33:39.926Z,2.08
2023-03-16T21:36:14.120Z,2.35
2023-03-16T21:38:44.401Z,2.08
2023-03-16T21:41:16.766Z,2.10
2023-03-16T21:43:44.366Z,2.27
2023-03-16T21:46:18.268Z,2.38
2023-03-16T21:48:49.576Z,2.25
2023-03-16T21:51:24.815Z,1.95
2023-03-16T21:53:53.659Z,1.92
2023-03-16T21:56:23.731Z,2.40
2023-03-16T21:58:50.968Z,2.10
2023-03-16T22:01:32.961Z,1.98
2023-03-16T22:04:07.439Z,1.83
2023-03-16T22:06:35.028Z,2.00
2023-03-16T22:09:03.081Z,1.75
2023-03-16T22:11:33.422Z,2.10
2023-03-16T22:14:02.836Z,1.98
2023-03-16T22:16:36.016Z,2.30
2023-03-16T22:19:04.435Z,2.20
2023-03-16T22:21:50.370Z,2.38
2023-03-16T22:24:23.715Z,2.05
2023-03-16T22:29:20.981Z,2.13
2023-03-16T22:31:48.829Z,1.98
2023-03-16T22:34:42.980Z,1.95
2023-03-16T22:37:15.669Z,2.00
2023-03-16T22:39:43.825Z,2.10
2023-03-16T22:42:38.499Z,2.30
2023-03-16T22:45:21.418Z,1.90
2023-03-16T22:47:51.561Z,2.08
2023-03-16T22:50:21.866Z,1.98
2023-03-16T22:52:57.198Z,2.33
2023-03-16T22:55:36.581Z,2.20
2023-03-16T22:58:19.315Z,2.10
2023-03-16T23:00:47.127Z,2.00
2023-03-16T23:03:24.131Z,1.80
2023-03-16T23:05:52.185Z,1.88
2023-03-16T23:08:23.603Z,2.00
2023-03-16T23:10:51.896Z,2.13
2023-03-16T23:13:24.050Z,1.95
2023-03-16T23:15:53.497Z,1.90
2023-03-16T23:18:23.990Z,1.80
2023-03-16T23:20:52.416Z,2.22
2023-03-16T23:23:22.439Z,1.83
2023-03-16T23:25:49.770Z,1.90
2023-03-16T23:28:25.383Z,2.00
2023-03-16T23:30:52.941Z,2.00
2023-03-16T23:33:20.155Z,1.60
2023-03-16T23:35:47.502Z,1.80
2023-03-16T23:38:15.013Z,2.33
2023-03-16T23:40:42.244Z,2.40
2023-03-16T23:43:11.540Z,2.10
2023-03-16T23:45:42.265Z,2.28
2023-03-16T23:48:15.924Z,2.00
2023-03-16T23:50:46.268Z,2.42
2023-03-16T23:53:20.039Z,2.20
2023-03-16T23:55:49.934Z,2.25
2023-03-16T23:58:17.210Z,2.13
